Ellsworth, NE (69340)

5:01 AM MST on November 20, 2017 (GMT -0700)
Bingham | | Change Station

Elev 3901 ft 42.02 °N, 102.09 °W | Updated 8 seconds ago

Partly Cloudy
Partly Cloudy
38.5 °F
Feels Like 38 °F
N
0.0
Wind Variable Wind from WSW
Gusts 0.0 mph

Today
High -- | Low -- °F
--% Chance of Precip.
Yesterday
High -- | Low -- °F
Precip. -- in
Pressure 29.71 in
Visibility 10.0 miles
Clouds Clear
Windchill 38 °F
Dew Point 14 °F
Humidity 37%
Rainfall 0.00 in
Snow Depth Not available.
6:45 AM 4:23 PM
Waxing Crescent, 4% visible
METAR KAIA 201153Z AUTO 26015KT 10SM CLR 07/M12 A2971 RMK AO2 SLP059 T00671117 10067 21044 56012
Pressure 29.71 in
Visibility 10.0 miles
Clouds Clear
Windchill 38 °F
Dew Point 14 °F
Humidity 37%
Rainfall 0.00 in
Snow Depth Not available.
6:45 AM 4:23 PM
Waxing Crescent, 4% visible
METAR KAIA 201153Z AUTO 26015KT 10SM CLR 07/M12 A2971 RMK AO2 SLP059 T00671117 10067 21044 56012

Get Severe Weather Alerts

Thanks for signing up!

Be on the lookout for a verification email in your inbox.

You'll start receiving the daily forecast at 6 AM.

×

10-Day Weather Forecast

Almanac

Astronomy

Nov. 20, 2017 Rise Set
Actual Time
Civil Twilight
Nautical Twilight
Astronomical Twilight
Moon
Length of Visible Light
Length of Day
Tomorrow will be .
, % of the Moon is Illuminated

Today's Extremes

State Highs State Lows

Community

WunderPhotos

Category 6

Welcome to Category 6. This is the collective home for Weather Underground's featured writeups by Dr. Jeff Masters (right), Bob Henson (left), Chris Burt, and other regular contributors.

Nearby

Air Quality

  Air Quality AQ Index Pollutant
Not available.

Snow Depth

Station Depth Elevation

Earthquake Activity

City Distance Mag. Time & Date
Minimum magnitude displayed is 2.5.

Coastal Water Temperatures

Place Temperature

Stations

Nearby Weather Stations

Station Location Temp. Windchill Dew Point Humidity Wind Precip. Elev Updated Type
                   

Watches & Warnings

There are currently no watches in effect.